sensor_id;sensor_type;location;lat;lon;timestamp;temperature;humidity
20370;DHT22;10344;47.592;9.600;2023-05-07T00:00:40;15.60;99.90
20370;DHT22;10344;47.592;9.600;2023-05-07T00:03:13;15.60;99.90
20370;DHT22;10344;47.592;9.600;2023-05-07T00:05:41;15.60;99.90
20370;DHT22;10344;47.592;9.600;2023-05-07T00:08:10;15.60;99.90
20370;DHT22;10344;47.592;9.600;2023-05-07T00:10:36;15.50;99.90
20370;DHT22;10344;47.592;9.600;2023-05-07T00:13:01;15.50;99.90
20370;DHT22;10344;47.592;9.600;2023-05-07T00:15:30;15.50;99.90
20370;DHT22;10344;47.592;9.600;2023-05-07T00:17:58;15.50;99.90
20370;DHT22;10344;47.592;9.600;2023-05-07T00:20:25;15.50;99.90
20370;DHT22;10344;47.592;9.600;2023-05-07T00:22:54;15.50;99.90
20370;DHT22;10344;47.592;9.600;2023-05-07T00:25:25;15.40;99.90
20370;DHT22;10344;47.592;9.600;2023-05-07T00:27:53;15.50;99.90
20370;DHT22;10344;47.592;9.600;2023-05-07T00:30:22;15.50;99.90
20370;DHT22;10344;47.592;9.600;2023-05-07T00:32:48;15.40;99.90
20370;DHT22;10344;47.592;9.600;2023-05-07T00:35:18;15.30;99.90
20370;DHT22;10344;47.592;9.600;2023-05-07T00:37:49;15.30;99.90
20370;DHT22;10344;47.592;9.600;2023-05-07T00:40:15;15.30;99.90
20370;DHT22;10344;47.592;9.600;2023-05-07T00:42:41;15.30;99.90
20370;DHT22;10344;47.592;9.600;2023-05-07T00:45:09;15.30;99.90
20370;DHT22;10344;47.592;9.600;2023-05-07T00:47:36;15.30;99.90
20370;DHT22;10344;47.592;9.600;2023-05-07T00:50:09;15.30;99.90
20370;DHT22;10344;47.592;9.600;2023-05-07T00:52:41;15.30;99.90
20370;DHT22;10344;47.592;9.600;2023-05-07T00:55:11;15.20;99.90
20370;DHT22;10344;47.592;9.600;2023-05-07T00:57:40;15.20;99.90
20370;DHT22;10344;47.592;9.600;2023-05-07T01:00:15;15.20;99.90
20370;DHT22;10344;47.592;9.600;2023-05-07T01:02:42;15.20;99.90
20370;DHT22;10344;47.592;9.600;2023-05-07T01:05:16;15.20;99.90
20370;DHT22;10344;47.592;9.600;2023-05-07T01:07:47;15.30;99.90
20370;DHT22;10344;47.592;9.600;2023-05-07T01:10:15;15.30;99.90
20370;DHT22;10344;47.592;9.600;2023-05-07T01:12:43;15.40;99.90
20370;DHT22;10344;47.592;9.600;2023-05-07T01:15:17;15.40;99.90
20370;DHT22;10344;47.592;9.600;2023-05-07T01:17:46;15.40;99.90
20370;DHT22;10344;47.592;9.600;2023-05-07T01:20:14;15.40;99.90
20370;DHT22;10344;47.592;9.600;2023-05-07T01:22:43;15.40;99.90
20370;DHT22;10344;47.592;9.600;2023-05-07T01:25:17;15.30;99.90
20370;DHT22;10344;47.592;9.600;2023-05-07T01:27:43;15.40;99.90
20370;DHT22;10344;47.592;9.600;2023-05-07T01:30:12;15.30;99.90
20370;DHT22;10344;47.592;9.600;2023-05-07T01:32:44;15.30;99.90
20370;DHT22;10344;47.592;9.600;2023-05-07T01:35:18;15.30;99.90
20370;DHT22;10344;47.592;9.600;2023-05-07T01:37:53;15.20;99.90
20370;DHT22;10344;47.592;9.600;2023-05-07T01:40:22;15.30;99.90
20370;DHT22;10344;47.592;9.600;2023-05-07T01:42:56;15.20;99.90
20370;DHT22;10344;47.592;9.600;2023-05-07T01:45:27;15.30;99.90
20370;DHT22;10344;47.592;9.600;2023-05-07T01:47:53;15.30;99.90
20370;DHT22;10344;47.592;9.600;2023-05-07T01:50:27;15.20;99.90
20370;DHT22;10344;47.592;9.600;2023-05-07T01:53:01;15.20;99.90
20370;DHT22;10344;47.592;9.600;2023-05-07T01:55:29;15.20;99.90
20370;DHT22;10344;47.592;9.600;2023-05-07T01:57:54;15.10;99.90
20370;DHT22;10344;47.592;9.600;2023-05-07T02:00:23;15.10;99.90
20370;DHT22;10344;47.592;9.600;2023-05-07T02:02:48;15.00;99.90
20370;DHT22;10344;47.592;9.600;2023-05-07T02:05:14;14.90;99.90
20370;DHT22;10344;47.592;9.600;2023-05-07T02:07:43;15.00;99.90
20370;DHT22;10344;47.592;9.600;2023-05-07T02:10:17;15.00;99.90
20370;DHT22;10344;47.592;9.600;2023-05-07T02:12:45;14.90;99.90
20370;DHT22;10344;47.592;9.600;2023-05-07T02:15:11;14.80;99.90
20370;DHT22;10344;47.592;9.600;2023-05-07T02:18:01;14.80;99.90
20370;DHT22;10344;47.592;9.600;2023-05-07T02:20:27;14.70;99.90
20370;DHT22;10344;47.592;9.600;2023-05-07T02:22:58;14.60;99.90
20370;DHT22;10344;47.592;9.600;2023-05-07T02:25:27;14.50;99.90
20370;DHT22;10344;47.592;9.600;2023-05-07T02:27:52;14.40;99.90
20370;DHT22;10344;47.592;9.600;2023-05-07T02:30:20;14.30;99.90
20370;DHT22;10344;47.592;9.600;2023-05-07T02:32:47;14.20;99.90
20370;DHT22;10344;47.592;9.600;2023-05-07T02:35:18;14.20;99.90
20370;DHT22;10344;47.592;9.600;2023-05-07T02:37:44;14.10;99.90
20370;DHT22;10344;47.592;9.600;2023-05-07T02:40:14;14.00;99.90
20370;DHT22;10344;47.592;9.600;2023-05-07T02:42:39;14.00;99.90
20370;DHT22;10344;47.592;9.600;2023-05-07T02:45:05;13.90;99.90
20370;DHT22;10344;47.592;9.600;2023-05-07T02:47:36;14.00;99.90
20370;DHT22;10344;47.592;9.600;2023-05-07T02:50:04;14.00;99.90
20370;DHT22;10344;47.592;9.600;2023-05-07T02:52:31;14.00;99.90
20370;DHT22;10344;47.592;9.600;2023-05-07T02:54:59;14.10;99.90
20370;DHT22;10344;47.592;9.600;2023-05-07T02:57:27;14.10;99.90
20370;DHT22;10344;47.592;9.600;2023-05-07T02:59:52;14.10;99.90
20370;DHT22;10344;47.592;9.600;2023-05-07T03:02:22;14.10;99.90
20370;DHT22;10344;47.592;9.600;2023-05-07T03:04:50;14.10;99.90
20370;DHT22;10344;47.592;9.600;2023-05-07T03:07:17;14.00;99.90
20370;DHT22;10344;47.592;9.600;2023-05-07T03:09:47;13.90;99.90
20370;DHT22;10344;47.592;9.600;2023-05-07T03:12:14;13.80;99.90
20370;DHT22;10344;47.592;9.600;2023-05-07T03:14:41;13.70;99.90
20370;DHT22;10344;47.592;9.600;2023-05-07T03:17:11;13.70;99.90
20370;DHT22;10344;47.592;9.600;2023-05-07T03:19:39;13.60;99.90
20370;DHT22;10344;47.592;9.600;2023-05-07T03:22:09;13.50;99.90
20370;DHT22;10344;47.592;9.600;2023-05-07T03:24:37;13.50;99.90
20370;DHT22;10344;47.592;9.600;2023-05-07T03:27:03;13.40;99.90
20370;DHT22;10344;47.592;9.600;2023-05-07T03:29:31;13.40;99.90
20370;DHT22;10344;47.592;9.600;2023-05-07T03:32:01;13.40;99.90
20370;DHT22;10344;47.592;9.600;2023-05-07T03:34:36;13.30;99.90
20370;DHT22;10344;47.592;9.600;2023-05-07T03:37:01;13.30;99.90
20370;DHT22;10344;47.592;9.600;2023-05-07T03:39:33;13.30;99.90
20370;DHT22;10344;47.592;9.600;2023-05-07T03:42:01;13.20;99.90
20370;DHT22;10344;47.592;9.600;2023-05-07T03:44:26;13.20;99.90
20370;DHT22;10344;47.592;9.600;2023-05-07T03:46:52;13.10;99.90
20370;DHT22;10344;47.592;9.600;2023-05-07T03:49:23;13.10;99.90
20370;DHT22;10344;47.592;9.600;2023-05-07T03:51:49;13.10;99.90
20370;DHT22;10344;47.592;9.600;2023-05-07T03:54:14;13.00;99.90
20370;DHT22;10344;47.592;9.600;2023-05-07T03:56:40;13.10;99.90
20370;DHT22;10344;47.592;9.600;2023-05-07T03:59:05;13.10;99.90
20370;DHT22;10344;47.592;9.600;2023-05-07T04:01:37;13.00;99.90
20370;DHT22;10344;47.592;9.600;2023-05-07T04:04:05;13.00;99.90
20370;DHT22;10344;47.592;9.600;2023-05-07T04:06:35;12.90;99.90
20370;DHT22;10344;47.592;9.600;2023-05-07T04:09:00;12.80;99.90
20370;DHT22;10344;47.592;9.600;2023-05-07T04:11:28;12.70;99.90
20370;DHT22;10344;47.592;9.600;2023-05-07T04:13:54;12.70;99.90
20370;DHT22;10344;47.592;9.600;2023-05-07T04:16:19;12.60;99.90
20370;DHT22;10344;47.592;9.600;2023-05-07T04:18:45;12.60;99.90
20370;DHT22;10344;47.592;9.600;2023-05-07T04:21:20;12.60;99.90
20370;DHT22;10344;47.592;9.600;2023-05-07T04:23:47;12.60;99.90
20370;DHT22;10344;47.592;9.600;2023-05-07T04:26:17;12.50;99.90
20370;DHT22;10344;47.592;9.600;2023-05-07T04:28:43;12.50;99.90
20370;DHT22;10344;47.592;9.600;2023-05-07T04:31:08;12.50;99.90
20370;DHT22;10344;47.592;9.600;2023-05-07T04:33:38;12.60;99.90
20370;DHT22;10344;47.592;9.600;2023-05-07T04:36:07;12.60;99.90
20370;DHT22;10344;47.592;9.600;2023-05-07T04:38:33;12.60;99.90
20370;DHT22;10344;47.592;9.600;2023-05-07T04:41:06;12.60;99.90
20370;DHT22;10344;47.592;9.600;2023-05-07T04:43:34;12.60;99.90
20370;DHT22;10344;47.592;9.600;2023-05-07T04:46:02;12.60;99.90
20370;DHT22;10344;47.592;9.600;2023-05-07T04:48:31;12.70;99.90
20370;DHT22;10344;47.592;9.600;2023-05-07T04:50:59;12.70;99.90
20370;DHT22;10344;47.592;9.600;2023-05-07T04:53:29;12.80;99.90
20370;DHT22;10344;47.592;9.600;2023-05-07T04:55:56;12.70;99.90
20370;DHT22;10344;47.592;9.600;2023-05-07T04:58:27;12.80;99.90
20370;DHT22;10344;47.592;9.600;2023-05-07T05:00:59;12.80;99.90
20370;DHT22;10344;47.592;9.600;2023-05-07T05:03:27;12.90;99.90
20370;DHT22;10344;47.592;9.600;2023-05-07T05:05:53;12.90;99.90
20370;DHT22;10344;47.592;9.600;2023-05-07T05:08:19;13.10;99.90
20370;DHT22;10344;47.592;9.600;2023-05-07T05:10:47;13.30;99.90
20370;DHT22;10344;47.592;9.600;2023-05-07T05:13:15;13.40;99.90
20370;DHT22;10344;47.592;9.600;2023-05-07T05:15:43;13.60;99.90
20370;DHT22;10344;47.592;9.600;2023-05-07T05:18:16;13.70;99.90
20370;DHT22;10344;47.592;9.600;2023-05-07T05:20:47;13.80;99.90
20370;DHT22;10344;47.592;9.600;2023-05-07T05:23:16;14.00;99.90
20370;DHT22;10344;47.592;9.600;2023-05-07T05:25:42;14.20;99.90
20370;DHT22;10344;47.592;9.600;2023-05-07T05:28:10;14.40;99.90
20370;DHT22;10344;47.592;9.600;2023-05-07T05:30:39;14.50;99.90
20370;DHT22;10344;47.592;9.600;2023-05-07T05:33:07;14.50;99.90
20370;DHT22;10344;47.592;9.600;2023-05-07T05:35:33;14.60;99.90
20370;DHT22;10344;47.592;9.600;2023-05-07T05:38:02;14.60;99.90
20370;DHT22;10344;47.592;9.600;2023-05-07T05:40:30;14.50;99.90
20370;DHT22;10344;47.592;9.600;2023-05-07T05:42:56;14.60;99.90
20370;DHT22;10344;47.592;9.600;2023-05-07T05:45:27;14.60;99.90
20370;DHT22;10344;47.592;9.600;2023-05-07T05:47:53;14.70;99.90
20370;DHT22;10344;47.592;9.600;2023-05-07T05:50:21;14.70;99.90
20370;DHT22;10344;47.592;9.600;2023-05-07T05:52:48;14.70;99.90
20370;DHT22;10344;47.592;9.600;2023-05-07T05:55:14;14.80;99.90
20370;DHT22;10344;47.592;9.600;2023-05-07T05:57:42;14.80;99.90
20370;DHT22;10344;47.592;9.600;2023-05-07T06:00:10;14.90;99.90
20370;DHT22;10344;47.592;9.600;2023-05-07T06:02:36;15.00;99.90
20370;DHT22;10344;47.592;9.600;2023-05-07T06:05:03;15.00;99.90
20370;DHT22;10344;47.592;9.600;2023-05-07T06:07:31;15.00;99.90
20370;DHT22;10344;47.592;9.600;2023-05-07T06:09:56;15.00;99.90
20370;DHT22;10344;47.592;9.600;2023-05-07T06:12:26;15.00;99.90
20370;DHT22;10344;47.592;9.600;2023-05-07T06:14:52;15.10;99.90
20370;DHT22;10344;47.592;9.600;2023-05-07T06:17:18;15.20;99.90
20370;DHT22;10344;47.592;9.600;2023-05-07T06:19:43;15.30;99.90
20370;DHT22;10344;47.592;9.600;2023-05-07T06:22:09;15.50;99.90
20370;DHT22;10344;47.592;9.600;2023-05-07T06:24:37;15.60;99.90
20370;DHT22;10344;47.592;9.600;2023-05-07T06:27:05;15.70;99.90
20370;DHT22;10344;47.592;9.600;2023-05-07T06:29:31;15.80;99.90
20370;DHT22;10344;47.592;9.600;2023-05-07T06:32:14;16.00;99.90
20370;DHT22;10344;47.592;9.600;2023-05-07T06:34:40;16.00;99.90
20370;DHT22;10344;47.592;9.600;2023-05-07T06:37:06;16.00;99.90
20370;DHT22;10344;47.592;9.600;2023-05-07T06:39:32;16.20;99.90
20370;DHT22;10344;47.592;9.600;2023-05-07T06:42:04;16.30;99.90
20370;DHT22;10344;47.592;9.600;2023-05-07T06:44:30;16.50;99.90
20370;DHT22;10344;47.592;9.600;2023-05-07T06:46:59;16.80;99.90
20370;DHT22;10344;47.592;9.600;2023-05-07T06:49:25;17.40;99.90
20370;DHT22;10344;47.592;9.600;2023-05-07T06:51:50;18.00;99.90
20370;DHT22;10344;47.592;9.600;2023-05-07T06:54:16;19.00;99.90
20370;DHT22;10344;47.592;9.600;2023-05-07T06:56:43;19.70;99.90
20370;DHT22;10344;47.592;9.600;2023-05-07T06:59:11;20.40;99.90
20370;DHT22;10344;47.592;9.600;2023-05-07T07:01:39;21.40;99.90
20370;DHT22;10344;47.592;9.600;2023-05-07T07:04:07;22.30;99.90
20370;DHT22;10344;47.592;9.600;2023-05-07T07:06:33;23.30;99.90
20370;DHT22;10344;47.592;9.600;2023-05-07T07:08:59;23.50;99.90
20370;DHT22;10344;47.592;9.600;2023-05-07T07:11:25;24.00;99.90
20370;DHT22;10344;47.592;9.600;2023-05-07T07:13:54;24.60;99.90
20370;DHT22;10344;47.592;9.600;2023-05-07T07:16:22;24.60;99.90
20370;DHT22;10344;47.592;9.600;2023-05-07T07:18:48;24.80;99.90
20370;DHT22;10344;47.592;9.600;2023-05-07T07:21:14;25.00;99.90
20370;DHT22;10344;47.592;9.600;2023-05-07T07:23:45;25.00;99.90
20370;DHT22;10344;47.592;9.600;2023-05-07T07:26:21;24.90;99.90
20370;DHT22;10344;47.592;9.600;2023-05-07T07:28:46;24.50;99.90
20370;DHT22;10344;47.592;9.600;2023-05-07T07:31:13;24.00;99.90
20370;DHT22;10344;47.592;9.600;2023-05-07T07:33:38;23.60;99.90
20370;DHT22;10344;47.592;9.600;2023-05-07T07:36:05;23.30;99.90
20370;DHT22;10344;47.592;9.600;2023-05-07T07:38:37;23.10;99.90
20370;DHT22;10344;47.592;9.600;2023-05-07T07:41:05;23.20;99.90
20370;DHT22;10344;47.592;9.600;2023-05-07T07:43:39;23.30;99.90
20370;DHT22;10344;47.592;9.600;2023-05-07T07:46:05;23.50;99.90
20370;DHT22;10344;47.592;9.600;2023-05-07T07:48:33;23.90;99.90
20370;DHT22;10344;47.592;9.600;2023-05-07T07:51:03;24.20;99.90
20370;DHT22;10344;47.592;9.600;2023-05-07T07:53:28;24.30;99.90
20370;DHT22;10344;47.592;9.600;2023-05-07T07:55:56;24.60;99.90
20370;DHT22;10344;47.592;9.600;2023-05-07T07:58:22;25.20;99.90
20370;DHT22;10344;47.592;9.600;2023-05-07T08:00:50;25.40;99.90
20370;DHT22;10344;47.592;9.600;2023-05-07T08:03:24;25.50;99.90
20370;DHT22;10344;47.592;9.600;2023-05-07T08:05:50;25.50;99.90
20370;DHT22;10344;47.592;9.600;2023-05-07T08:08:19;25.20;99.90
20370;DHT22;10344;47.592;9.600;2023-05-07T08:10:45;24.60;99.90
20370;DHT22;10344;47.592;9.600;2023-05-07T08:13:11;24.40;99.90
20370;DHT22;10344;47.592;9.600;2023-05-07T08:15:37;24.10;99.90
20370;DHT22;10344;47.592;9.600;2023-05-07T08:18:08;23.60;99.90
20370;DHT22;10344;47.592;9.600;2023-05-07T08:20:33;23.10;99.90
20370;DHT22;10344;47.592;9.600;2023-05-07T08:23:02;22.70;99.90
20370;DHT22;10344;47.592;9.600;2023-05-07T08:25:34;22.40;99.90
20370;DHT22;10344;47.592;9.600;2023-05-07T08:28:00;23.10;99.90
20370;DHT22;10344;47.592;9.600;2023-05-07T08:30:31;24.30;99.90
20370;DHT22;10344;47.592;9.600;2023-05-07T08:32:59;25.00;99.90
20370;DHT22;10344;47.592;9.600;2023-05-07T08:35:25;24.90;99.90
20370;DHT22;10344;47.592;9.600;2023-05-07T08:37:54;24.50;99.90
20370;DHT22;10344;47.592;9.600;2023-05-07T08:40:25;24.40;99.90
20370;DHT22;10344;47.592;9.600;2023-05-07T08:42:58;24.30;99.90
20370;DHT22;10344;47.592;9.600;2023-05-07T08:45:26;23.60;99.90
20370;DHT22;10344;47.592;9.600;2023-05-07T08:47:59;23.10;99.90
20370;DHT22;10344;47.592;9.600;2023-05-07T08:50:25;22.90;99.90
20370;DHT22;10344;47.592;9.600;2023-05-07T08:52:57;22.80;99.90
20370;DHT22;10344;47.592;9.600;2023-05-07T08:55:23;22.80;99.90
20370;DHT22;10344;47.592;9.600;2023-05-07T08:57:50;22.60;99.90
20370;DHT22;10344;47.592;9.600;2023-05-07T09:00:19;22.20;99.90
20370;DHT22;10344;47.592;9.600;2023-05-07T09:02:47;21.80;99.90
20370;DHT22;10344;47.592;9.600;2023-05-07T09:05:12;21.50;99.90
20370;DHT22;10344;47.592;9.600;2023-05-07T09:07:38;21.40;99.90
20370;DHT22;10344;47.592;9.600;2023-05-07T09:10:07;21.30;99.90
20370;DHT22;10344;47.592;9.600;2023-05-07T09:12:35;21.50;99.90
20370;DHT22;10344;47.592;9.600;2023-05-07T09:15:07;21.90;99.90
20370;DHT22;10344;47.592;9.600;2023-05-07T09:17:35;22.60;99.90
20370;DHT22;10344;47.592;9.600;2023-05-07T09:20:07;23.30;99.90
20370;DHT22;10344;47.592;9.600;2023-05-07T09:22:43;24.10;99.90
20370;DHT22;10344;47.592;9.600;2023-05-07T09:25:11;24.70;99.90
20370;DHT22;10344;47.592;9.600;2023-05-07T09:27:37;24.90;99.90
20370;DHT22;10344;47.592;9.600;2023-05-07T09:30:18;24.80;99.90
20370;DHT22;10344;47.592;9.600;2023-05-07T09:32:44;24.20;99.90
20370;DHT22;10344;47.592;9.600;2023-05-07T09:35:16;23.90;99.90
20370;DHT22;10344;47.592;9.600;2023-05-07T09:37:42;23.70;99.90
20370;DHT22;10344;47.592;9.600;2023-05-07T09:40:08;23.70;99.90
20370;DHT22;10344;47.592;9.600;2023-05-07T09:42:48;23.40;99.90
20370;DHT22;10344;47.592;9.600;2023-05-07T09:45:15;23.30;99.90
20370;DHT22;10344;47.592;9.600;2023-05-07T09:47:43;23.10;99.90
20370;DHT22;10344;47.592;9.600;2023-05-07T09:50:27;23.20;99.90
20370;DHT22;10344;47.592;9.600;2023-05-07T09:52:55;23.30;99.90
20370;DHT22;10344;47.592;9.600;2023-05-07T09:55:22;23.40;99.90
20370;DHT22;10344;47.592;9.600;2023-05-07T09:57:54;23.80;99.90
20370;DHT22;10344;47.592;9.600;2023-05-07T10:00:24;23.90;99.90
20370;DHT22;10344;47.592;9.600;2023-05-07T10:02:59;24.00;99.90
20370;DHT22;10344;47.592;9.600;2023-05-07T10:05:28;23.90;99.90
20370;DHT22;10344;47.592;9.600;2023-05-07T10:07:55;23.70;99.90
20370;DHT22;10344;47.592;9.600;2023-05-07T10:10:23;23.50;99.90
20370;DHT22;10344;47.592;9.600;2023-05-07T10:12:51;23.30;99.90
20370;DHT22;10344;47.592;9.600;2023-05-07T10:15:18;23.20;99.90
20370;DHT22;10344;47.592;9.600;2023-05-07T10:17:46;23.10;99.90
20370;DHT22;10344;47.592;9.600;2023-05-07T10:20:19;23.30;99.90
20370;DHT22;10344;47.592;9.600;2023-05-07T10:22:48;23.10;99.90
20370;DHT22;10344;47.592;9.600;2023-05-07T10:25:28;23.10;99.90
20370;DHT22;10344;47.592;9.600;2023-05-07T10:27:55;23.10;99.90
20370;DHT22;10344;47.592;9.600;2023-05-07T10:33:39;23.30;99.90
20370;DHT22;10344;47.592;9.600;2023-05-07T10:36:05;23.50;99.90
20370;DHT22;10344;47.592;9.600;2023-05-07T10:38:38;23.60;99.90
20370;DHT22;10344;47.592;9.600;2023-05-07T10:41:06;23.70;99.90
20370;DHT22;10344;47.592;9.600;2023-05-07T10:43:41;24.00;99.90
20370;DHT22;10344;47.592;9.600;2023-05-07T10:46:13;24.30;99.90
20370;DHT22;10344;47.592;9.600;2023-05-07T10:51:29;24.90;99.90
20370;DHT22;10344;47.592;9.600;2023-05-07T10:56:41;25.00;99.90
20370;DHT22;10344;47.592;9.600;2023-05-07T11:02:18;25.30;99.90
20370;DHT22;10344;47.592;9.600;2023-05-07T11:04:44;25.60;99.90
20370;DHT22;10344;47.592;9.600;2023-05-07T11:07:21;25.40;99.90
20370;DHT22;10344;47.592;9.600;2023-05-07T11:09:59;25.30;99.90
20370;DHT22;10344;47.592;9.600;2023-05-07T11:15:12;25.10;99.90
20370;DHT22;10344;47.592;9.600;2023-05-07T11:17:58;25.40;99.90
20370;DHT22;10344;47.592;9.600;2023-05-07T11:26:08;26.90;99.90
20370;DHT22;10344;47.592;9.600;2023-05-07T11:28:43;26.20;99.90
20370;DHT22;10344;47.592;9.600;2023-05-07T11:31:10;25.70;99.90
20370;DHT22;10344;47.592;9.600;2023-05-07T11:33:41;25.60;99.90
20370;DHT22;10344;47.592;9.600;2023-05-07T11:36:11;25.50;99.90
20370;DHT22;10344;47.592;9.600;2023-05-07T11:38:46;25.50;99.90
20370;DHT22;10344;47.592;9.600;2023-05-07T11:41:19;25.60;99.90
20370;DHT22;10344;47.592;9.600;2023-05-07T11:43:58;25.30;99.90
20370;DHT22;10344;47.592;9.600;2023-05-07T11:46:30;25.50;99.90
20370;DHT22;10344;47.592;9.600;2023-05-07T11:48:58;25.50;99.90
20370;DHT22;10344;47.592;9.600;2023-05-07T11:51:24;25.60;99.90
20370;DHT22;10344;47.592;9.600;2023-05-07T11:53:54;25.50;99.90
20370;DHT22;10344;47.592;9.600;2023-05-07T11:56:20;25.60;99.90
20370;DHT22;10344;47.592;9.600;2023-05-07T11:58:47;25.70;99.90
20370;DHT22;10344;47.592;9.600;2023-05-07T12:01:14;25.40;99.90
20370;DHT22;10344;47.592;9.600;2023-05-07T12:03:48;25.40;99.90
20370;DHT22;10344;47.592;9.600;2023-05-07T12:06:20;25.40;99.90
20370;DHT22;10344;47.592;9.600;2023-05-07T12:08:48;25.60;99.90
20370;DHT22;10344;47.592;9.600;2023-05-07T12:11:22;26.00;99.90
20370;DHT22;10344;47.592;9.600;2023-05-07T12:13:48;25.90;99.90
20370;DHT22;10344;47.592;9.600;2023-05-07T12:16:18;26.00;99.90
20370;DHT22;10344;47.592;9.600;2023-05-07T12:18:47;25.90;99.90
20370;DHT22;10344;47.592;9.600;2023-05-07T12:21:20;26.10;99.90
20370;DHT22;10344;47.592;9.600;2023-05-07T12:23:47;26.50;99.90
20370;DHT22;10344;47.592;9.600;2023-05-07T12:26:13;26.80;99.90
20370;DHT22;10344;47.592;9.600;2023-05-07T12:28:42;27.30;99.90
20370;DHT22;10344;47.592;9.600;2023-05-07T12:31:08;27.80;99.90
20370;DHT22;10344;47.592;9.600;2023-05-07T12:33:34;28.20;99.90
20370;DHT22;10344;47.592;9.600;2023-05-07T12:36:06;28.40;99.90
20370;DHT22;10344;47.592;9.600;2023-05-07T12:38:36;28.50;99.90
20370;DHT22;10344;47.592;9.600;2023-05-07T12:41:09;28.70;99.90
20370;DHT22;10344;47.592;9.600;2023-05-07T12:43:38;28.70;99.90
20370;DHT22;10344;47.592;9.600;2023-05-07T12:46:09;28.80;99.90
20370;DHT22;10344;47.592;9.600;2023-05-07T12:48:38;29.00;99.90
20370;DHT22;10344;47.592;9.600;2023-05-07T12:51:11;29.10;99.90
20370;DHT22;10344;47.592;9.600;2023-05-07T12:53:43;29.20;99.90
20370;DHT22;10344;47.592;9.600;2023-05-07T12:56:09;29.20;99.90
20370;DHT22;10344;47.592;9.600;2023-05-07T12:58:35;29.10;99.90
20370;DHT22;10344;47.592;9.600;2023-05-07T13:01:08;29.20;99.90
20370;DHT22;10344;47.592;9.600;2023-05-07T13:03:36;29.20;99.90
20370;DHT22;10344;47.592;9.600;2023-05-07T13:06:09;29.20;99.90
20370;DHT22;10344;47.592;9.600;2023-05-07T13:08:42;29.10;99.90
20370;DHT22;10344;47.592;9.600;2023-05-07T13:11:09;29.10;99.90
20370;DHT22;10344;47.592;9.600;2023-05-07T13:13:37;29.00;99.90
20370;DHT22;10344;47.592;9.600;2023-05-07T13:16:09;28.90;99.90
20370;DHT22;10344;47.592;9.600;2023-05-07T13:18:35;29.00;99.90
20370;DHT22;10344;47.592;9.600;2023-05-07T13:21:01;29.00;99.90
20370;DHT22;10344;47.592;9.600;2023-05-07T13:23:33;29.00;99.90
20370;DHT22;10344;47.592;9.600;2023-05-07T13:25:59;29.10;99.90
20370;DHT22;10344;47.592;9.600;2023-05-07T13:28:33;29.10;99.90
20370;DHT22;10344;47.592;9.600;2023-05-07T13:30:58;28.90;99.90
20370;DHT22;10344;47.592;9.600;2023-05-07T13:33:26;28.80;99.90
20370;DHT22;10344;47.592;9.600;2023-05-07T13:35:56;28.90;99.90
20370;DHT22;10344;47.592;9.600;2023-05-07T13:38:22;29.00;99.90
20370;DHT22;10344;47.592;9.600;2023-05-07T13:40:48;28.90;99.90
20370;DHT22;10344;47.592;9.600;2023-05-07T13:43:13;28.80;99.90
20370;DHT22;10344;47.592;9.600;2023-05-07T13:45:42;28.70;99.90
20370;DHT22;10344;47.592;9.600;2023-05-07T13:48:08;28.80;99.90
20370;DHT22;10344;47.592;9.600;2023-05-07T13:50:36;29.10;99.90
20370;DHT22;10344;47.592;9.600;2023-05-07T13:53:01;29.30;99.90
20370;DHT22;10344;47.592;9.600;2023-05-07T13:55:30;29.40;99.90
20370;DHT22;10344;47.592;9.600;2023-05-07T13:57:57;29.50;99.90
20370;DHT22;10344;47.592;9.600;2023-05-07T14:00:25;29.30;99.90
20370;DHT22;10344;47.592;9.600;2023-05-07T14:02:57;28.90;99.90
20370;DHT22;10344;47.592;9.600;2023-05-07T14:05:23;28.40;99.90
20370;DHT22;10344;47.592;9.600;2023-05-07T14:07:50;27.90;99.90
20370;DHT22;10344;47.592;9.600;2023-05-07T14:10:24;27.30;99.90
20370;DHT22;10344;47.592;9.600;2023-05-07T14:12:54;26.80;99.90
20370;DHT22;10344;47.592;9.600;2023-05-07T14:15:20;26.40;99.90
20370;DHT22;10344;47.592;9.600;2023-05-07T14:17:45;25.90;99.90
20370;DHT22;10344;47.592;9.600;2023-05-07T14:20:12;25.70;99.90
20370;DHT22;10344;47.592;9.600;2023-05-07T14:22:42;25.40;99.90
20370;DHT22;10344;47.592;9.600;2023-05-07T14:25:08;25.20;99.90
20370;DHT22;10344;47.592;9.600;2023-05-07T14:27:37;25.10;99.90
20370;DHT22;10344;47.592;9.600;2023-05-07T14:30:07;25.00;99.90
20370;DHT22;10344;47.592;9.600;2023-05-07T14:32:33;24.90;99.90
20370;DHT22;10344;47.592;9.600;2023-05-07T14:35:02;24.90;99.90
20370;DHT22;10344;47.592;9.600;2023-05-07T14:37:36;24.70;99.90
20370;DHT22;10344;47.592;9.600;2023-05-07T14:40:02;24.60;99.90
20370;DHT22;10344;47.592;9.600;2023-05-07T14:42:34;24.50;99.90
20370;DHT22;10344;47.592;9.600;2023-05-07T14:45:02;24.50;99.90
20370;DHT22;10344;47.592;9.600;2023-05-07T14:47:30;24.40;99.90
20370;DHT22;10344;47.592;9.600;2023-05-07T14:49:56;24.20;99.90
20370;DHT22;10344;47.592;9.600;2023-05-07T14:52:31;24.10;99.90
20370;DHT22;10344;47.592;9.600;2023-05-07T14:54:59;23.90;99.90
20370;DHT22;10344;47.592;9.600;2023-05-07T14:57:24;23.70;99.90
20370;DHT22;10344;47.592;9.600;2023-05-07T14:59:55;23.60;99.90
20370;DHT22;10344;47.592;9.600;2023-05-07T15:02:23;23.50;99.90
20370;DHT22;10344;47.592;9.600;2023-05-07T15:04:56;23.40;99.90
20370;DHT22;10344;47.592;9.600;2023-05-07T15:07:22;23.20;99.90
20370;DHT22;10344;47.592;9.600;2023-05-07T15:09:47;23.10;99.90
20370;DHT22;10344;47.592;9.600;2023-05-07T15:12:13;22.90;99.90
20370;DHT22;10344;47.592;9.600;2023-05-07T15:14:45;22.80;99.90
20370;DHT22;10344;47.592;9.600;2023-05-07T15:17:11;22.60;99.90
20370;DHT22;10344;47.592;9.600;2023-05-07T15:19:36;22.60;99.90
20370;DHT22;10344;47.592;9.600;2023-05-07T15:22:10;22.50;99.90
20370;DHT22;10344;47.592;9.600;2023-05-07T15:24:35;22.40;99.90
20370;DHT22;10344;47.592;9.600;2023-05-07T15:27:03;22.30;99.90
20370;DHT22;10344;47.592;9.600;2023-05-07T15:29:35;22.30;99.90
20370;DHT22;10344;47.592;9.600;2023-05-07T15:32:00;22.20;99.90
20370;DHT22;10344;47.592;9.600;2023-05-07T15:34:26;22.30;99.90
20370;DHT22;10344;47.592;9.600;2023-05-07T15:36:56;22.20;99.90
20370;DHT22;10344;47.592;9.600;2023-05-07T15:39:24;22.10;99.90
20370;DHT22;10344;47.592;9.600;2023-05-07T15:41:50;22.00;99.90
20370;DHT22;10344;47.592;9.600;2023-05-07T15:44:22;22.10;99.90
20370;DHT22;10344;47.592;9.600;2023-05-07T15:46:47;22.00;99.90
20370;DHT22;10344;47.592;9.600;2023-05-07T15:49:13;22.10;99.90
20370;DHT22;10344;47.592;9.600;2023-05-07T15:51:38;22.10;99.90
20370;DHT22;10344;47.592;9.600;2023-05-07T15:54:10;22.10;99.90
20370;DHT22;10344;47.592;9.600;2023-05-07T15:56:36;22.10;99.90
20370;DHT22;10344;47.592;9.600;2023-05-07T15:59:01;22.00;99.90